sensor_id;sensor_type;location;lat;lon;timestamp;P1;durP1;ratioP1;P2;durP2;ratioP2
78718;SDS011;68046;53.334;9.538;2023-08-12T00:00:13;5.15;;;4.03;;
78718;SDS011;68046;53.334;9.538;2023-08-12T00:02:45;11.90;;;4.45;;
78718;SDS011;68046;53.334;9.538;2023-08-12T00:05:16;6.25;;;4.43;;
78718;SDS011;68046;53.334;9.538;2023-08-12T00:07:45;9.25;;;4.57;;
78718;SDS011;68046;53.334;9.538;2023-08-12T00:10:18;8.48;;;4.55;;
78718;SDS011;68046;53.334;9.538;2023-08-12T00:12:48;6.97;;;4.05;;
78718;SDS011;68046;53.334;9.538;2023-08-12T00:15:17;6.22;;;4.18;;
78718;SDS011;68046;53.334;9.538;2023-08-12T00:17:47;8.65;;;4.25;;
78718;SDS011;68046;53.334;9.538;2023-08-12T00:20:18;9.20;;;4.43;;
78718;SDS011;68046;53.334;9.538;2023-08-12T00:22:48;5.93;;;3.90;;
78718;SDS011;68046;53.334;9.538;2023-08-12T00:25:21;11.10;;;4.40;;
78718;SDS011;68046;53.334;9.538;2023-08-12T00:27:51;7.25;;;4.32;;
78718;SDS011;68046;53.334;9.538;2023-08-12T00:30:21;8.38;;;4.53;;
78718;SDS011;68046;53.334;9.538;2023-08-12T00:32:51;4.75;;;3.78;;
78718;SDS011;68046;53.334;9.538;2023-08-12T00:35:21;7.15;;;3.95;;
78718;SDS011;68046;53.334;9.538;2023-08-12T00:37:51;8.73;;;4.82;;
78718;SDS011;68046;53.334;9.538;2023-08-12T00:40:23;9.82;;;4.30;;
78718;SDS011;68046;53.334;9.538;2023-08-12T00:42:55;9.02;;;4.28;;
78718;SDS011;68046;53.334;9.538;2023-08-12T00:45:25;6.47;;;4.03;;
78718;SDS011;68046;53.334;9.538;2023-08-12T00:47:55;8.13;;;4.70;;
78718;SDS011;68046;53.334;9.538;2023-08-12T00:50:25;5.97;;;3.95;;
78718;SDS011;68046;53.334;9.538;2023-08-12T00:55:27;9.70;;;5.07;;
78718;SDS011;68046;53.334;9.538;2023-08-12T00:57:58;11.10;;;5.78;;
78718;SDS011;68046;53.334;9.538;2023-08-12T01:00:28;7.70;;;5.30;;
78718;SDS011;68046;53.334;9.538;2023-08-12T01:03:00;7.53;;;4.68;;
78718;SDS011;68046;53.334;9.538;2023-08-12T01:05:31;6.65;;;5.00;;
78718;SDS011;68046;53.334;9.538;2023-08-12T01:08:06;6.43;;;4.70;;
78718;SDS011;68046;53.334;9.538;2023-08-12T01:10:39;8.30;;;4.97;;
78718;SDS011;68046;53.334;9.538;2023-08-12T01:13:16;9.82;;;4.95;;
78718;SDS011;68046;53.334;9.538;2023-08-12T01:15:52;6.45;;;4.65;;
78718;SDS011;68046;53.334;9.538;2023-08-12T01:18:23;7.07;;;4.25;;
78718;SDS011;68046;53.334;9.538;2023-08-12T01:20:53;8.90;;;4.57;;
78718;SDS011;68046;53.334;9.538;2023-08-12T01:23:26;7.78;;;4.95;;
78718;SDS011;68046;53.334;9.538;2023-08-12T01:25:57;6.57;;;4.40;;
78718;SDS011;68046;53.334;9.538;2023-08-12T01:28:27;7.72;;;4.55;;
78718;SDS011;68046;53.334;9.538;2023-08-12T01:30:57;9.10;;;4.68;;
78718;SDS011;68046;53.334;9.538;2023-08-12T01:33:33;5.70;;;4.60;;
78718;SDS011;68046;53.334;9.538;2023-08-12T01:36:07;7.88;;;4.53;;
78718;SDS011;68046;53.334;9.538;2023-08-12T01:38:42;10.88;;;4.72;;
78718;SDS011;68046;53.334;9.538;2023-08-12T01:41:13;5.68;;;3.72;;
78718;SDS011;68046;53.334;9.538;2023-08-12T01:46:13;11.98;;;4.47;;
78718;SDS011;68046;53.334;9.538;2023-08-12T01:48:42;5.88;;;3.72;;
78718;SDS011;68046;53.334;9.538;2023-08-12T01:51:12;6.65;;;3.97;;
78718;SDS011;68046;53.334;9.538;2023-08-12T01:53:45;6.95;;;4.13;;
78718;SDS011;68046;53.334;9.538;2023-08-12T01:56:15;8.40;;;4.60;;
78718;SDS011;68046;53.334;9.538;2023-08-12T01:58:44;5.05;;;4.15;;
78718;SDS011;68046;53.334;9.538;2023-08-12T02:01:14;6.45;;;4.05;;
78718;SDS011;68046;53.334;9.538;2023-08-12T02:03:44;10.02;;;4.80;;
78718;SDS011;68046;53.334;9.538;2023-08-12T02:06:14;7.95;;;4.35;;
78718;SDS011;68046;53.334;9.538;2023-08-12T02:08:47;8.50;;;4.60;;
78718;SDS011;68046;53.334;9.538;2023-08-12T02:11:17;5.97;;;4.38;;
78718;SDS011;68046;53.334;9.538;2023-08-12T02:13:47;6.15;;;4.57;;
78718;SDS011;68046;53.334;9.538;2023-08-12T02:16:17;9.48;;;4.57;;
78718;SDS011;68046;53.334;9.538;2023-08-12T02:18:46;9.02;;;4.22;;
78718;SDS011;68046;53.334;9.538;2023-08-12T02:21:16;7.68;;;4.32;;
78718;SDS011;68046;53.334;9.538;2023-08-12T02:23:49;7.40;;;4.10;;
78718;SDS011;68046;53.334;9.538;2023-08-12T02:26:18;7.45;;;4.43;;
78718;SDS011;68046;53.334;9.538;2023-08-12T02:28:48;5.68;;;4.30;;
78718;SDS011;68046;53.334;9.538;2023-08-12T02:31:18;10.57;;;4.55;;
78718;SDS011;68046;53.334;9.538;2023-08-12T02:33:48;5.90;;;4.13;;
78718;SDS011;68046;53.334;9.538;2023-08-12T02:36:18;13.65;;;4.75;;
78718;SDS011;68046;53.334;9.538;2023-08-12T02:38:51;8.52;;;4.20;;
78718;SDS011;68046;53.334;9.538;2023-08-12T02:41:20;4.80;;;3.75;;
78718;SDS011;68046;53.334;9.538;2023-08-12T02:43:50;6.15;;;4.72;;
78718;SDS011;68046;53.334;9.538;2023-08-12T02:46:20;6.40;;;4.03;;
78718;SDS011;68046;53.334;9.538;2023-08-12T02:48:52;15.48;;;5.13;;
78718;SDS011;68046;53.334;9.538;2023-08-12T02:51:21;8.73;;;4.32;;
78718;SDS011;68046;53.334;9.538;2023-08-12T02:53:54;8.88;;;4.75;;
78718;SDS011;68046;53.334;9.538;2023-08-12T02:56:23;6.93;;;4.43;;
78718;SDS011;68046;53.334;9.538;2023-08-12T02:58:53;7.40;;;4.20;;
78718;SDS011;68046;53.334;9.538;2023-08-12T03:01:23;6.43;;;4.55;;
78718;SDS011;68046;53.334;9.538;2023-08-12T03:03:54;8.70;;;4.60;;
78718;SDS011;68046;53.334;9.538;2023-08-12T03:06:24;6.40;;;4.85;;
78718;SDS011;68046;53.334;9.538;2023-08-12T03:11:26;7.90;;;4.38;;
78718;SDS011;68046;53.334;9.538;2023-08-12T03:13:58;6.55;;;5.05;;
78718;SDS011;68046;53.334;9.538;2023-08-12T03:16:28;7.50;;;5.00;;
78718;SDS011;68046;53.334;9.538;2023-08-12T03:18:58;9.77;;;5.50;;
78718;SDS011;68046;53.334;9.538;2023-08-12T03:21:28;7.53;;;4.78;;
78718;SDS011;68046;53.334;9.538;2023-08-12T03:24:00;9.90;;;5.53;;
78718;SDS011;68046;53.334;9.538;2023-08-12T03:26:30;8.57;;;5.40;;
78718;SDS011;68046;53.334;9.538;2023-08-12T03:31:32;7.78;;;5.13;;
78718;SDS011;68046;53.334;9.538;2023-08-12T03:34:02;8.98;;;5.53;;
78718;SDS011;68046;53.334;9.538;2023-08-12T03:39:05;11.70;;;5.72;;
78718;SDS011;68046;53.334;9.538;2023-08-12T03:41:35;8.77;;;5.43;;
78718;SDS011;68046;53.334;9.538;2023-08-12T03:44:05;16.92;;;6.05;;
78718;SDS011;68046;53.334;9.538;2023-08-12T03:46:36;9.75;;;5.95;;
78718;SDS011;68046;53.334;9.538;2023-08-12T03:49:06;10.80;;;5.70;;
78718;SDS011;68046;53.334;9.538;2023-08-12T03:51:37;9.05;;;6.22;;
78718;SDS011;68046;53.334;9.538;2023-08-12T03:54:10;14.30;;;5.28;;
78718;SDS011;68046;53.334;9.538;2023-08-12T03:56:40;9.05;;;4.95;;
78718;SDS011;68046;53.334;9.538;2023-08-12T03:59:10;7.72;;;5.30;;
78718;SDS011;68046;53.334;9.538;2023-08-12T04:01:41;10.77;;;5.95;;
78718;SDS011;68046;53.334;9.538;2023-08-12T04:04:10;12.10;;;4.53;;
78718;SDS011;68046;53.334;9.538;2023-08-12T04:06:40;7.80;;;5.60;;
78718;SDS011;68046;53.334;9.538;2023-08-12T04:09:13;9.05;;;5.38;;
78718;SDS011;68046;53.334;9.538;2023-08-12T04:11:43;10.63;;;5.57;;
78718;SDS011;68046;53.334;9.538;2023-08-12T04:14:13;10.40;;;6.30;;
78718;SDS011;68046;53.334;9.538;2023-08-12T04:16:43;13.65;;;6.28;;
78718;SDS011;68046;53.334;9.538;2023-08-12T04:19:16;9.27;;;6.65;;
78718;SDS011;68046;53.334;9.538;2023-08-12T04:21:46;9.38;;;5.75;;
78718;SDS011;68046;53.334;9.538;2023-08-12T04:24:19;10.45;;;5.80;;
78718;SDS011;68046;53.334;9.538;2023-08-12T04:26:49;8.82;;;6.07;;
78718;SDS011;68046;53.334;9.538;2023-08-12T04:29:19;10.43;;;6.72;;
78718;SDS011;68046;53.334;9.538;2023-08-12T04:31:48;7.75;;;6.03;;
78718;SDS011;68046;53.334;9.538;2023-08-12T04:34:19;14.40;;;5.68;;
78718;SDS011;68046;53.334;9.538;2023-08-12T04:36:51;10.35;;;6.20;;
78718;SDS011;68046;53.334;9.538;2023-08-12T04:39:23;8.50;;;6.07;;
78718;SDS011;68046;53.334;9.538;2023-08-12T04:41:54;8.40;;;6.43;;
78718;SDS011;68046;53.334;9.538;2023-08-12T04:44:25;13.55;;;7.78;;
78718;SDS011;68046;53.334;9.538;2023-08-12T04:46:55;11.13;;;6.50;;
78718;SDS011;68046;53.334;9.538;2023-08-12T04:49:25;11.18;;;7.32;;
78718;SDS011;68046;53.334;9.538;2023-08-12T04:51:55;9.65;;;6.82;;
78718;SDS011;68046;53.334;9.538;2023-08-12T04:54:28;10.73;;;6.50;;
78718;SDS011;68046;53.334;9.538;2023-08-12T04:56:58;9.23;;;6.70;;
78718;SDS011;68046;53.334;9.538;2023-08-12T04:59:28;10.80;;;6.43;;
78718;SDS011;68046;53.334;9.538;2023-08-12T05:01:58;12.23;;;5.93;;
78718;SDS011;68046;53.334;9.538;2023-08-12T05:04:32;10.35;;;6.00;;
78718;SDS011;68046;53.334;9.538;2023-08-12T05:07:02;10.98;;;6.68;;
78718;SDS011;68046;53.334;9.538;2023-08-12T05:09:34;11.23;;;6.90;;
78718;SDS011;68046;53.334;9.538;2023-08-12T05:12:05;11.15;;;7.28;;
78718;SDS011;68046;53.334;9.538;2023-08-12T05:14:36;15.20;;;7.93;;
78718;SDS011;68046;53.334;9.538;2023-08-12T05:17:07;14.02;;;6.53;;
78718;SDS011;68046;53.334;9.538;2023-08-12T05:19:37;11.05;;;7.28;;
78718;SDS011;68046;53.334;9.538;2023-08-12T05:22:07;12.10;;;7.15;;
78718;SDS011;68046;53.334;9.538;2023-08-12T05:24:40;11.85;;;7.25;;
78718;SDS011;68046;53.334;9.538;2023-08-12T05:27:10;12.07;;;8.00;;
78718;SDS011;68046;53.334;9.538;2023-08-12T05:29:39;11.38;;;7.45;;
78718;SDS011;68046;53.334;9.538;2023-08-12T05:32:09;15.00;;;7.57;;
78718;SDS011;68046;53.334;9.538;2023-08-12T05:37:09;12.07;;;7.38;;
78718;SDS011;68046;53.334;9.538;2023-08-12T05:39:41;11.07;;;7.93;;
78718;SDS011;68046;53.334;9.538;2023-08-12T05:42:11;11.68;;;8.15;;
78718;SDS011;68046;53.334;9.538;2023-08-12T05:44:41;11.45;;;7.70;;
78718;SDS011;68046;53.334;9.538;2023-08-12T05:47:11;11.80;;;8.60;;
78718;SDS011;68046;53.334;9.538;2023-08-12T05:49:41;11.73;;;8.07;;
78718;SDS011;68046;53.334;9.538;2023-08-12T05:54:44;13.75;;;9.55;;
78718;SDS011;68046;53.334;9.538;2023-08-12T05:57:14;17.90;;;10.77;;
78718;SDS011;68046;53.334;9.538;2023-08-12T05:59:44;14.70;;;10.02;;
78718;SDS011;68046;53.334;9.538;2023-08-12T06:02:14;17.45;;;10.18;;
78718;SDS011;68046;53.334;9.538;2023-08-12T06:04:45;11.82;;;8.85;;
78718;SDS011;68046;53.334;9.538;2023-08-12T06:07:15;17.33;;;9.38;;
78718;SDS011;68046;53.334;9.538;2023-08-12T06:09:47;16.30;;;10.82;;
78718;SDS011;68046;53.334;9.538;2023-08-12T06:12:17;16.58;;;11.10;;
78718;SDS011;68046;53.334;9.538;2023-08-12T06:14:47;18.85;;;12.50;;
78718;SDS011;68046;53.334;9.538;2023-08-12T06:17:17;19.88;;;12.43;;
78718;SDS011;68046;53.334;9.538;2023-08-12T06:19:46;19.45;;;12.52;;
78718;SDS011;68046;53.334;9.538;2023-08-12T06:22:16;15.80;;;12.02;;
78718;SDS011;68046;53.334;9.538;2023-08-12T06:24:49;19.13;;;12.15;;
78718;SDS011;68046;53.334;9.538;2023-08-12T06:27:18;22.33;;;13.35;;
78718;SDS011;68046;53.334;9.538;2023-08-12T06:29:48;17.20;;;11.10;;
78718;SDS011;68046;53.334;9.538;2023-08-12T06:32:18;14.27;;;10.65;;
78718;SDS011;68046;53.334;9.538;2023-08-12T06:34:48;18.23;;;11.65;;
78718;SDS011;68046;53.334;9.538;2023-08-12T06:37:18;17.50;;;11.77;;
78718;SDS011;68046;53.334;9.538;2023-08-12T06:39:50;22.08;;;15.00;;
78718;SDS011;68046;53.334;9.538;2023-08-12T06:42:20;19.80;;;14.10;;
78718;SDS011;68046;53.334;9.538;2023-08-12T06:44:54;18.92;;;14.20;;
78718;SDS011;68046;53.334;9.538;2023-08-12T06:47:25;22.38;;;14.52;;
78718;SDS011;68046;53.334;9.538;2023-08-12T06:49:56;21.25;;;12.82;;
78718;SDS011;68046;53.334;9.538;2023-08-12T06:52:26;20.40;;;14.48;;
78718;SDS011;68046;53.334;9.538;2023-08-12T06:54:58;22.52;;;16.00;;
78718;SDS011;68046;53.334;9.538;2023-08-12T06:57:28;21.08;;;14.18;;
78718;SDS011;68046;53.334;9.538;2023-08-12T06:59:58;26.77;;;16.88;;
78718;SDS011;68046;53.334;9.538;2023-08-12T07:02:27;25.80;;;17.40;;
78718;SDS011;68046;53.334;9.538;2023-08-12T07:04:58;22.08;;;15.73;;
78718;SDS011;68046;53.334;9.538;2023-08-12T07:07:28;31.35;;;18.55;;
78718;SDS011;68046;53.334;9.538;2023-08-12T07:10:01;28.90;;;17.25;;
78718;SDS011;68046;53.334;9.538;2023-08-12T07:12:33;27.58;;;18.50;;
78718;SDS011;68046;53.334;9.538;2023-08-12T07:15:03;25.08;;;17.90;;
78718;SDS011;68046;53.334;9.538;2023-08-12T07:17:34;28.17;;;19.02;;
78718;SDS011;68046;53.334;9.538;2023-08-12T07:20:05;27.63;;;18.27;;
78718;SDS011;68046;53.334;9.538;2023-08-12T07:22:36;29.67;;;19.33;;
78718;SDS011;68046;53.334;9.538;2023-08-12T07:25:09;31.88;;;19.08;;
78718;SDS011;68046;53.334;9.538;2023-08-12T07:27:39;26.20;;;17.70;;
78718;SDS011;68046;53.334;9.538;2023-08-12T07:30:10;28.45;;;18.50;;
78718;SDS011;68046;53.334;9.538;2023-08-12T07:32:40;30.08;;;17.30;;
78718;SDS011;68046;53.334;9.538;2023-08-12T07:35:10;28.23;;;18.02;;
78718;SDS011;68046;53.334;9.538;2023-08-12T07:37:40;30.60;;;17.33;;
78718;SDS011;68046;53.334;9.538;2023-08-12T07:40:13;23.45;;;16.48;;
78718;SDS011;68046;53.334;9.538;2023-08-12T07:42:43;23.63;;;16.35;;
78718;SDS011;68046;53.334;9.538;2023-08-12T07:45:14;25.92;;;15.93;;
78718;SDS011;68046;53.334;9.538;2023-08-12T07:47:44;27.65;;;16.85;;
78718;SDS011;68046;53.334;9.538;2023-08-12T07:50:15;28.15;;;16.08;;
78718;SDS011;68046;53.334;9.538;2023-08-12T07:52:45;24.25;;;17.50;;
78718;SDS011;68046;53.334;9.538;2023-08-12T07:57:50;24.92;;;14.75;;
78718;SDS011;68046;53.334;9.538;2023-08-12T08:00:21;22.60;;;15.45;;
78718;SDS011;68046;53.334;9.538;2023-08-12T08:02:51;21.25;;;14.82;;
78718;SDS011;68046;53.334;9.538;2023-08-12T08:05:21;27.55;;;15.70;;
78718;SDS011;68046;53.334;9.538;2023-08-12T08:07:51;23.05;;;14.60;;
78718;SDS011;68046;53.334;9.538;2023-08-12T08:10:24;23.05;;;14.35;;
78718;SDS011;68046;53.334;9.538;2023-08-12T08:12:54;21.67;;;13.35;;
78718;SDS011;68046;53.334;9.538;2023-08-12T08:15:24;21.85;;;14.77;;
78718;SDS011;68046;53.334;9.538;2023-08-12T08:17:54;22.60;;;13.73;;
78718;SDS011;68046;53.334;9.538;2023-08-12T08:20:27;21.55;;;13.63;;
78718;SDS011;68046;53.334;9.538;2023-08-12T08:22:57;22.08;;;13.88;;
78718;SDS011;68046;53.334;9.538;2023-08-12T08:25:30;22.13;;;13.90;;
78718;SDS011;68046;53.334;9.538;2023-08-12T08:28:00;21.83;;;14.25;;
78718;SDS011;68046;53.334;9.538;2023-08-12T08:30:30;17.15;;;12.00;;
78718;SDS011;68046;53.334;9.538;2023-08-12T08:35:31;15.25;;;9.65;;
78718;SDS011;68046;53.334;9.538;2023-08-12T08:38:01;18.80;;;11.63;;
78718;SDS011;68046;53.334;9.538;2023-08-12T08:43:04;15.60;;;10.98;;
78718;SDS011;68046;53.334;9.538;2023-08-12T08:45:37;20.00;;;11.82;;
78718;SDS011;68046;53.334;9.538;2023-08-12T08:48:10;20.27;;;12.85;;
78718;SDS011;68046;53.334;9.538;2023-08-12T08:50:40;20.38;;;11.52;;
78718;SDS011;68046;53.334;9.538;2023-08-12T08:53:12;26.33;;;14.05;;
78718;SDS011;68046;53.334;9.538;2023-08-12T08:55:45;22.63;;;14.18;;
78718;SDS011;68046;53.334;9.538;2023-08-12T08:58:15;20.98;;;13.85;;
78718;SDS011;68046;53.334;9.538;2023-08-12T09:00:48;22.98;;;14.10;;
78718;SDS011;68046;53.334;9.538;2023-08-12T09:03:19;19.35;;;12.65;;
78718;SDS011;68046;53.334;9.538;2023-08-12T09:05:50;24.85;;;14.52;;
78718;SDS011;68046;53.334;9.538;2023-08-12T09:08:22;20.88;;;13.60;;
78718;SDS011;68046;53.334;9.538;2023-08-12T09:10:55;22.73;;;13.85;;
78718;SDS011;68046;53.334;9.538;2023-08-12T09:13:25;22.80;;;13.57;;
78718;SDS011;68046;53.334;9.538;2023-08-12T09:15:55;25.45;;;13.77;;
78718;SDS011;68046;53.334;9.538;2023-08-12T09:18:25;19.75;;;12.82;;
78718;SDS011;68046;53.334;9.538;2023-08-12T09:20:55;24.85;;;14.10;;
78718;SDS011;68046;53.334;9.538;2023-08-12T09:23:26;22.77;;;14.63;;
78718;SDS011;68046;53.334;9.538;2023-08-12T09:28:29;19.85;;;12.75;;
78718;SDS011;68046;53.334;9.538;2023-08-12T09:30:59;21.42;;;15.38;;
78718;SDS011;68046;53.334;9.538;2023-08-12T09:33:29;21.35;;;14.73;;
78718;SDS011;68046;53.334;9.538;2023-08-12T09:35:59;25.00;;;16.42;;
78718;SDS011;68046;53.334;9.538;2023-08-12T09:38:29;23.48;;;14.10;;
78718;SDS011;68046;53.334;9.538;2023-08-12T09:41:02;21.65;;;15.02;;
78718;SDS011;68046;53.334;9.538;2023-08-12T09:43:32;21.55;;;15.23;;
78718;SDS011;68046;53.334;9.538;2023-08-12T09:46:02;28.08;;;15.90;;
78718;SDS011;68046;53.334;9.538;2023-08-12T09:51:02;21.88;;;13.93;;
78718;SDS011;68046;53.334;9.538;2023-08-12T09:53:32;26.33;;;15.95;;
78718;SDS011;68046;53.334;9.538;2023-08-12T09:56:06;22.23;;;14.93;;
78718;SDS011;68046;53.334;9.538;2023-08-12T09:58:37;20.88;;;14.02;;
78718;SDS011;68046;53.334;9.538;2023-08-12T10:01:10;24.25;;;15.20;;
78718;SDS011;68046;53.334;9.538;2023-08-12T10:03:41;22.23;;;15.23;;
78718;SDS011;68046;53.334;9.538;2023-08-12T10:06:13;25.90;;;15.70;;
78718;SDS011;68046;53.334;9.538;2023-08-12T10:08:45;27.95;;;16.45;;
78718;SDS011;68046;53.334;9.538;2023-08-12T10:11:18;27.50;;;16.00;;
78718;SDS011;68046;53.334;9.538;2023-08-12T10:13:48;23.13;;;14.90;;
78718;SDS011;68046;53.334;9.538;2023-08-12T10:16:18;25.85;;;17.00;;
78718;SDS011;68046;53.334;9.538;2023-08-12T10:18:48;26.55;;;16.13;;
78718;SDS011;68046;53.334;9.538;2023-08-12T10:21:18;24.58;;;15.23;;
78718;SDS011;68046;53.334;9.538;2023-08-12T10:23:50;24.67;;;16.88;;
78718;SDS011;68046;53.334;9.538;2023-08-12T10:26:23;26.80;;;16.38;;
78718;SDS011;68046;53.334;9.538;2023-08-12T10:28:54;22.83;;;16.83;;
78718;SDS011;68046;53.334;9.538;2023-08-12T10:31:24;22.23;;;14.68;;
78718;SDS011;68046;53.334;9.538;2023-08-12T10:33:56;27.27;;;15.75;;
78718;SDS011;68046;53.334;9.538;2023-08-12T10:36:27;23.73;;;15.77;;
78718;SDS011;68046;53.334;9.538;2023-08-12T10:38:57;25.88;;;16.05;;
78718;SDS011;68046;53.334;9.538;2023-08-12T10:41:30;23.38;;;15.75;;
78718;SDS011;68046;53.334;9.538;2023-08-12T10:44:05;26.35;;;15.10;;
78718;SDS011;68046;53.334;9.538;2023-08-12T10:49:06;25.95;;;14.63;;
78718;SDS011;68046;53.334;9.538;2023-08-12T10:51:40;18.35;;;14.10;;
78718;SDS011;68046;53.334;9.538;2023-08-12T10:54:18;24.60;;;15.43;;
78718;SDS011;68046;53.334;9.538;2023-08-12T10:59:47;24.70;;;14.65;;
78718;SDS011;68046;53.334;9.538;2023-08-12T11:02:22;24.08;;;15.05;;
78718;SDS011;68046;53.334;9.538;2023-08-12T11:04:57;20.58;;;14.77;;
78718;SDS011;68046;53.334;9.538;2023-08-12T11:07:29;22.90;;;14.50;;
78718;SDS011;68046;53.334;9.538;2023-08-12T11:10:10;23.63;;;14.75;;
78718;SDS011;68046;53.334;9.538;2023-08-12T11:12:48;19.35;;;13.98;;
78718;SDS011;68046;53.334;9.538;2023-08-12T11:15:32;23.40;;;14.60;;
78718;SDS011;68046;53.334;9.538;2023-08-12T11:18:04;23.77;;;15.30;;
78718;SDS011;68046;53.334;9.538;2023-08-12T11:20:35;22.77;;;15.30;;
78718;SDS011;68046;53.334;9.538;2023-08-12T11:23:06;25.35;;;14.57;;
78718;SDS011;68046;53.334;9.538;2023-08-12T11:25:37;22.20;;;14.90;;
78718;SDS011;68046;53.334;9.538;2023-08-12T11:28:11;28.05;;;17.85;;
78718;SDS011;68046;53.334;9.538;2023-08-12T11:30:41;24.65;;;16.10;;
78718;SDS011;68046;53.334;9.538;2023-08-12T11:33:12;29.58;;;17.25;;
78718;SDS011;68046;53.334;9.538;2023-08-12T11:35:45;31.02;;;16.67;;
78718;SDS011;68046;53.334;9.538;2023-08-12T11:38:15;24.10;;;17.00;;
78718;SDS011;68046;53.334;9.538;2023-08-12T11:40:45;23.73;;;16.23;;
78718;SDS011;68046;53.334;9.538;2023-08-12T11:43:18;30.73;;;16.80;;
78718;SDS011;68046;53.334;9.538;2023-08-12T11:45:50;25.45;;;16.63;;
78718;SDS011;68046;53.334;9.538;2023-08-12T11:48:21;26.10;;;15.50;;
78718;SDS011;68046;53.334;9.538;2023-08-12T11:53:21;22.80;;;15.25;;
78718;SDS011;68046;53.334;9.538;2023-08-12T11:55:51;21.73;;;15.75;;
78718;SDS011;68046;53.334;9.538;2023-08-12T11:58:23;25.73;;;16.42;;
78718;SDS011;68046;53.334;9.538;2023-08-12T12:01:09;24.70;;;15.43;;
78718;SDS011;68046;53.334;9.538;2023-08-12T12:03:39;27.58;;;15.93;;
78718;SDS011;68046;53.334;9.538;2023-08-12T12:06:09;24.33;;;15.25;;
78718;SDS011;68046;53.334;9.538;2023-08-12T12:08:39;19.90;;;14.30;;
78718;SDS011;68046;53.334;9.538;2023-08-12T12:13:41;20.08;;;13.43;;
78718;SDS011;68046;53.334;9.538;2023-08-12T12:16:13;21.23;;;14.10;;
78718;SDS011;68046;53.334;9.538;2023-08-12T12:18:44;24.42;;;14.52;;
78718;SDS011;68046;53.334;9.538;2023-08-12T12:21:19;24.73;;;16.15;;
78718;SDS011;68046;53.334;9.538;2023-08-12T12:23:52;26.08;;;17.17;;
78718;SDS011;68046;53.334;9.538;2023-08-12T12:26:22;22.77;;;14.85;;
78718;SDS011;68046;53.334;9.538;2023-08-12T12:28:55;23.20;;;15.85;;
78718;SDS011;68046;53.334;9.538;2023-08-12T12:31:25;23.00;;;15.23;;
78718;SDS011;68046;53.334;9.538;2023-08-12T12:33:55;21.23;;;13.95;;
78718;SDS011;68046;53.334;9.538;2023-08-12T12:36:25;19.50;;;15.25;;
78718;SDS011;68046;53.334;9.538;2023-08-12T12:38:55;21.30;;;13.98;;
78718;SDS011;68046;53.334;9.538;2023-08-12T12:41:25;23.90;;;16.15;;
78718;SDS011;68046;53.334;9.538;2023-08-12T12:43:57;24.17;;;15.95;;
78718;SDS011;68046;53.334;9.538;2023-08-12T12:46:27;27.05;;;15.15;;
78718;SDS011;68046;53.334;9.538;2023-08-12T12:51:27;24.20;;;14.27;;
78718;SDS011;68046;53.334;9.538;2023-08-12T12:56:28;19.45;;;13.43;;
78718;SDS011;68046;53.334;9.538;2023-08-12T12:59:01;21.50;;;14.40;;
78718;SDS011;68046;53.334;9.538;2023-08-12T13:01:32;20.85;;;13.65;;
78718;SDS011;68046;53.334;9.538;2023-08-12T13:04:03;19.50;;;13.40;;
78718;SDS011;68046;53.334;9.538;2023-08-12T13:06:34;19.45;;;13.68;;
78718;SDS011;68046;53.334;9.538;2023-08-12T13:09:04;18.52;;;13.45;;
78718;SDS011;68046;53.334;9.538;2023-08-12T13:11:34;19.38;;;13.27;;
78718;SDS011;68046;53.334;9.538;2023-08-12T13:14:07;20.10;;;14.02;;
78718;SDS011;68046;53.334;9.538;2023-08-12T13:16:37;20.17;;;14.02;;
78718;SDS011;68046;53.334;9.538;2023-08-12T13:19:07;18.60;;;13.63;;
78718;SDS011;68046;53.334;9.538;2023-08-12T13:21:36;19.45;;;13.05;;
78718;SDS011;68046;53.334;9.538;2023-08-12T13:24:06;18.45;;;12.38;;
78718;SDS011;68046;53.334;9.538;2023-08-12T13:26:36;18.38;;;13.48;;
78718;SDS011;68046;53.334;9.538;2023-08-12T13:29:09;20.38;;;13.68;;
78718;SDS011;68046;53.334;9.538;2023-08-12T13:31:39;19.77;;;14.18;;
78718;SDS011;68046;53.334;9.538;2023-08-12T13:34:09;21.65;;;14.23;;
78718;SDS011;68046;53.334;9.538;2023-08-12T13:36:42;20.95;;;14.68;;
78718;SDS011;68046;53.334;9.538;2023-08-12T13:39:17;20.50;;;14.13;;
78718;SDS011;68046;53.334;9.538;2023-08-12T13:41:59;20.27;;;14.85;;
78718;SDS011;68046;53.334;9.538;2023-08-12T13:44:32;19.58;;;12.68;;
78718;SDS011;68046;53.334;9.538;2023-08-12T13:47:02;18.00;;;13.63;;
78718;SDS011;68046;53.334;9.538;2023-08-12T13:49:32;24.60;;;13.13;;
78718;SDS011;68046;53.334;9.538;2023-08-12T13:52:01;20.23;;;14.10;;
78718;SDS011;68046;53.334;9.538;2023-08-12T13:57:02;18.13;;;13.05;;
78718;SDS011;68046;53.334;9.538;2023-08-12T13:59:34;20.30;;;13.63;;
78718;SDS011;68046;53.334;9.538;2023-08-12T14:02:04;21.67;;;13.45;;
78718;SDS011;68046;53.334;9.538;2023-08-12T14:04:34;18.05;;;13.15;;
78718;SDS011;68046;53.334;9.538;2023-08-12T14:07:04;21.00;;;13.50;;
78718;SDS011;68046;53.334;9.538;2023-08-12T14:09:39;21.77;;;15.27;;
78718;SDS011;68046;53.334;9.538;2023-08-12T14:14:44;18.00;;;13.85;;
78718;SDS011;68046;53.334;9.538;2023-08-12T14:17:15;25.05;;;15.48;;
78718;SDS011;68046;53.334;9.538;2023-08-12T14:19:52;22.38;;;15.40;;
78718;SDS011;68046;53.334;9.538;2023-08-12T14:22:22;20.27;;;15.02;;
78718;SDS011;68046;53.334;9.538;2023-08-12T14:24:52;21.75;;;15.40;;
78718;SDS011;68046;53.334;9.538;2023-08-12T14:27:42;21.60;;;13.73;;
78718;SDS011;68046;53.334;9.538;2023-08-12T14:30:17;21.10;;;12.63;;
78718;SDS011;68046;53.334;9.538;2023-08-12T14:32:47;20.25;;;13.82;;
78718;SDS011;68046;53.334;9.538;2023-08-12T14:35:17;18.08;;;13.23;;
78718;SDS011;68046;53.334;9.538;2023-08-12T14:37:47;19.15;;;12.25;;
78718;SDS011;68046;53.334;9.538;2023-08-12T14:40:19;13.48;;;10.35;;
78718;SDS011;68046;53.334;9.538;2023-08-12T14:42:51;16.17;;;10.23;;
78718;SDS011;68046;53.334;9.538;2023-08-12T14:45:24;14.38;;;9.93;;
78718;SDS011;68046;53.334;9.538;2023-08-12T14:47:54;13.88;;;10.05;;
78718;SDS011;68046;53.334;9.538;2023-08-12T14:50:24;15.57;;;10.60;;
78718;SDS011;68046;53.334;9.538;2023-08-12T14:52:57;13.05;;;9.90;;
78718;SDS011;68046;53.334;9.538;2023-08-12T14:55:27;15.60;;;10.90;;
78718;SDS011;68046;53.334;9.538;2023-08-12T14:57:56;12.63;;;10.77;;
78718;SDS011;68046;53.334;9.538;2023-08-12T15:00:29;13.30;;;10.40;;
78718;SDS011;68046;53.334;9.538;2023-08-12T15:03:00;14.82;;;10.43;;
78718;SDS011;68046;53.334;9.538;2023-08-12T15:05:30;16.92;;;11.45;;
78718;SDS011;68046;53.334;9.538;2023-08-12T15:08:00;16.67;;;11.05;;
78718;SDS011;68046;53.334;9.538;2023-08-12T15:10:30;19.50;;;12.15;;
78718;SDS011;68046;53.334;9.538;2023-08-12T15:13:01;16.17;;;12.02;;
78718;SDS011;68046;53.334;9.538;2023-08-12T15:15:33;13.68;;;10.73;;
78718;SDS011;68046;53.334;9.538;2023-08-12T15:18:04;14.90;;;9.35;;
78718;SDS011;68046;53.334;9.538;2023-08-12T15:20:34;14.55;;;10.65;;
78718;SDS011;68046;53.334;9.538;2023-08-12T15:23:03;10.50;;;8.27;;
78718;SDS011;68046;53.334;9.538;2023-08-12T15:25:35;13.00;;;9.07;;
78718;SDS011;68046;53.334;9.538;2023-08-12T15:28:04;11.27;;;8.40;;
78718;SDS011;68046;53.334;9.538;2023-08-12T15:30:37;8.93;;;7.25;;
78718;SDS011;68046;53.334;9.538;2023-08-12T15:33:07;10.30;;;7.70;;
78718;SDS011;68046;53.334;9.538;2023-08-12T15:35:38;9.75;;;6.93;;
78718;SDS011;68046;53.334;9.538;2023-08-12T15:38:08;6.85;;;4.78;;
78718;SDS011;68046;53.334;9.538;2023-08-12T15:40:38;6.18;;;3.97;;
78718;SDS011;68046;53.334;9.538;2023-08-12T15:43:08;4.85;;;3.20;;